< < Back
Terminal Aerodrome Forecast


Current Version              Previous Versions:   1  2  3  4  5  6  7  8  9  

Terminal Aerodrome Forecast

120
FTUS42 KTAE 161100
TAFVLD
TAF
KVLD 161120Z 1612/1712 VRB03KT P6SM SHRA VCTS BKN006 BKN014CB
     FM161400 21004KT 5SM -TSRA SCT008 BKN020CB OVC100
     FM161600 22004KT P6SM VCTS SCT025CB OVC070
     FM161800 26007KT 4SM TSRA BKN030CB OVC060
      TEMPO 1620/1624 2SM +TSRA OVC025CB
     FM170000 25004KT 6SM -TSRA BKN025CB OVC100
     FM170500 00000KT P6SM SCT100 BKN250
     FM171000 00000KT P6SM SCT250=

Latest METAR

456
SAUS70 KWBC 161900 RRN
MTRVLD
METAR KVLD 161853Z 00000KT 10SM BKN031 BKN039 30/23 A2998 RMK AO2 SLP158
T03000228


USA.gov is the U.S. government's official web portal to all federal, state and local government web resources and services.